sensor_id;sensor_type;location;lat;lon;timestamp;P1;durP1;ratioP1;P2;durP2;ratioP2
70825;SDS011;58446;41.490;22.098;2023-01-08T00:02:07;39.72;;;25.33;;
70825;SDS011;58446;41.490;22.098;2023-01-08T00:04:34;36.97;;;23.80;;
70825;SDS011;58446;41.490;22.098;2023-01-08T00:06:59;39.70;;;26.37;;
70825;SDS011;58446;41.490;22.098;2023-01-08T00:09:25;46.88;;;28.95;;
70825;SDS011;58446;41.490;22.098;2023-01-08T00:11:50;49.13;;;30.80;;
70825;SDS011;58446;41.490;22.098;2023-01-08T00:14:16;66.32;;;37.70;;
70825;SDS011;58446;41.490;22.098;2023-01-08T00:16:42;87.00;;;48.90;;
70825;SDS011;58446;41.490;22.098;2023-01-08T00:19:07;107.30;;;55.03;;
70825;SDS011;58446;41.490;22.098;2023-01-08T00:21:34;80.67;;;43.23;;
70825;SDS011;58446;41.490;22.098;2023-01-08T00:24:00;90.90;;;51.22;;
70825;SDS011;58446;41.490;22.098;2023-01-08T00:26:26;77.50;;;41.67;;
70825;SDS011;58446;41.490;22.098;2023-01-08T00:28:51;76.22;;;43.40;;
70825;SDS011;58446;41.490;22.098;2023-01-08T00:31:17;79.43;;;44.63;;
70825;SDS011;58446;41.490;22.098;2023-01-08T00:33:43;88.32;;;47.63;;
70825;SDS011;58446;41.490;22.098;2023-01-08T00:36:09;91.97;;;50.53;;
70825;SDS011;58446;41.490;22.098;2023-01-08T00:38:38;88.43;;;50.30;;
70825;SDS011;58446;41.490;22.098;2023-01-08T00:41:03;160.47;;;79.13;;
70825;SDS011;58446;41.490;22.098;2023-01-08T00:43:29;122.55;;;61.58;;
70825;SDS011;58446;41.490;22.098;2023-01-08T00:45:55;124.10;;;64.97;;
70825;SDS011;58446;41.490;22.098;2023-01-08T00:48:21;129.53;;;66.50;;
70825;SDS011;58446;41.490;22.098;2023-01-08T00:50:48;154.70;;;78.18;;
70825;SDS011;58446;41.490;22.098;2023-01-08T00:53:14;129.05;;;68.07;;
70825;SDS011;58446;41.490;22.098;2023-01-08T00:55:39;129.77;;;66.90;;
70825;SDS011;58446;41.490;22.098;2023-01-08T00:58:05;125.78;;;64.38;;
70825;SDS011;58446;41.490;22.098;2023-01-08T01:00:32;93.65;;;52.88;;
70825;SDS011;58446;41.490;22.098;2023-01-08T01:02:57;70.60;;;42.43;;
70825;SDS011;58446;41.490;22.098;2023-01-08T01:05:23;70.07;;;41.85;;
70825;SDS011;58446;41.490;22.098;2023-01-08T01:07:48;54.83;;;33.93;;
70825;SDS011;58446;41.490;22.098;2023-01-08T01:10:14;55.10;;;32.78;;
70825;SDS011;58446;41.490;22.098;2023-01-08T01:12:41;58.93;;;34.90;;
70825;SDS011;58446;41.490;22.098;2023-01-08T01:15:16;85.00;;;47.63;;
70825;SDS011;58446;41.490;22.098;2023-01-08T01:17:43;71.40;;;40.53;;
70825;SDS011;58446;41.490;22.098;2023-01-08T01:20:11;85.38;;;49.83;;
70825;SDS011;58446;41.490;22.098;2023-01-08T01:22:39;91.03;;;48.13;;
70825;SDS011;58446;41.490;22.098;2023-01-08T01:25:05;88.03;;;48.13;;
70825;SDS011;58446;41.490;22.098;2023-01-08T01:27:32;131.32;;;62.83;;
70825;SDS011;58446;41.490;22.098;2023-01-08T01:29:57;99.78;;;50.35;;
70825;SDS011;58446;41.490;22.098;2023-01-08T01:32:23;191.50;;;79.03;;
70825;SDS011;58446;41.490;22.098;2023-01-08T01:34:49;105.47;;;51.92;;
70825;SDS011;58446;41.490;22.098;2023-01-08T01:37:15;108.53;;;55.00;;
70825;SDS011;58446;41.490;22.098;2023-01-08T01:39:41;108.43;;;54.55;;
70825;SDS011;58446;41.490;22.098;2023-01-08T01:42:13;127.30;;;59.60;;
70825;SDS011;58446;41.490;22.098;2023-01-08T01:45:02;146.77;;;64.97;;
70825;SDS011;58446;41.490;22.098;2023-01-08T01:47:36;170.47;;;78.43;;
70825;SDS011;58446;41.490;22.098;2023-01-08T01:52:38;117.53;;;61.47;;
70825;SDS011;58446;41.490;22.098;2023-01-08T01:55:06;116.03;;;57.88;;
70825;SDS011;58446;41.490;22.098;2023-01-08T01:57:35;116.63;;;56.78;;
70825;SDS011;58446;41.490;22.098;2023-01-08T02:00:04;112.33;;;55.47;;
70825;SDS011;58446;41.490;22.098;2023-01-08T02:02:32;109.05;;;51.92;;
70825;SDS011;58446;41.490;22.098;2023-01-08T02:04:59;106.50;;;53.70;;
70825;SDS011;58446;41.490;22.098;2023-01-08T02:07:37;109.32;;;55.30;;
70825;SDS011;58446;41.490;22.098;2023-01-08T02:13:34;103.47;;;53.80;;
70825;SDS011;58446;41.490;22.098;2023-01-08T02:18:49;90.90;;;47.13;;
70825;SDS011;58446;41.490;22.098;2023-01-08T02:27:07;75.68;;;39.22;;
70825;SDS011;58446;41.490;22.098;2023-01-08T02:29:33;74.32;;;39.75;;
70825;SDS011;58446;41.490;22.098;2023-01-08T02:31:59;60.70;;;32.08;;
70825;SDS011;58446;41.490;22.098;2023-01-08T02:34:26;58.50;;;33.30;;
70825;SDS011;58446;41.490;22.098;2023-01-08T02:36:53;54.83;;;31.40;;
70825;SDS011;58446;41.490;22.098;2023-01-08T02:44:33;55.42;;;28.73;;
70825;SDS011;58446;41.490;22.098;2023-01-08T02:47:23;48.08;;;29.13;;
70825;SDS011;58446;41.490;22.098;2023-01-08T02:49:49;49.23;;;28.77;;
70825;SDS011;58446;41.490;22.098;2023-01-08T02:52:23;48.38;;;29.52;;
70825;SDS011;58446;41.490;22.098;2023-01-08T02:54:53;75.35;;;40.53;;
70825;SDS011;58446;41.490;22.098;2023-01-08T02:57:21;75.35;;;39.20;;
70825;SDS011;58446;41.490;22.098;2023-01-08T02:59:48;65.20;;;36.45;;
70825;SDS011;58446;41.490;22.098;2023-01-08T03:02:14;70.53;;;40.60;;
70825;SDS011;58446;41.490;22.098;2023-01-08T03:04:45;72.63;;;38.95;;
70825;SDS011;58446;41.490;22.098;2023-01-08T03:07:17;123.20;;;59.15;;
70825;SDS011;58446;41.490;22.098;2023-01-08T03:09:43;123.78;;;60.63;;
70825;SDS011;58446;41.490;22.098;2023-01-08T03:12:12;110.65;;;54.05;;
70825;SDS011;58446;41.490;22.098;2023-01-08T03:14:45;95.13;;;49.33;;
70825;SDS011;58446;41.490;22.098;2023-01-08T03:17:23;84.15;;;47.88;;
70825;SDS011;58446;41.490;22.098;2023-01-08T03:19:56;90.72;;;49.00;;
70825;SDS011;58446;41.490;22.098;2023-01-08T03:22:33;90.80;;;50.25;;
70825;SDS011;58446;41.490;22.098;2023-01-08T03:25:04;102.50;;;52.63;;
70825;SDS011;58446;41.490;22.098;2023-01-08T03:27:32;85.17;;;45.97;;
70825;SDS011;58446;41.490;22.098;2023-01-08T03:30:04;78.85;;;43.95;;
70825;SDS011;58446;41.490;22.098;2023-01-08T03:32:32;79.50;;;44.33;;
70825;SDS011;58446;41.490;22.098;2023-01-08T03:34:58;82.95;;;43.45;;
70825;SDS011;58446;41.490;22.098;2023-01-08T03:37:32;82.22;;;44.85;;
70825;SDS011;58446;41.490;22.098;2023-01-08T03:40:05;85.80;;;43.30;;
70825;SDS011;58446;41.490;22.098;2023-01-08T03:42:38;81.60;;;40.80;;
70825;SDS011;58446;41.490;22.098;2023-01-08T03:45:04;78.47;;;42.70;;
70825;SDS011;58446;41.490;22.098;2023-01-08T03:47:31;83.05;;;44.55;;
70825;SDS011;58446;41.490;22.098;2023-01-08T03:50:01;74.78;;;41.63;;
70825;SDS011;58446;41.490;22.098;2023-01-08T03:52:30;82.37;;;43.10;;
70825;SDS011;58446;41.490;22.098;2023-01-08T03:54:57;76.68;;;42.00;;
70825;SDS011;58446;41.490;22.098;2023-01-08T03:57:23;73.68;;;40.22;;
70825;SDS011;58446;41.490;22.098;2023-01-08T03:59:49;74.50;;;40.78;;
70825;SDS011;58446;41.490;22.098;2023-01-08T04:02:15;67.50;;;38.60;;
70825;SDS011;58446;41.490;22.098;2023-01-08T04:04:41;64.85;;;38.20;;
70825;SDS011;58446;41.490;22.098;2023-01-08T04:07:08;67.30;;;37.67;;
70825;SDS011;58446;41.490;22.098;2023-01-08T04:09:35;69.37;;;36.77;;
70825;SDS011;58446;41.490;22.098;2023-01-08T04:12:01;70.72;;;39.30;;
70825;SDS011;58446;41.490;22.098;2023-01-08T04:14:27;63.10;;;37.07;;
70825;SDS011;58446;41.490;22.098;2023-01-08T04:16:52;70.05;;;36.97;;
70825;SDS011;58446;41.490;22.098;2023-01-08T04:19:18;62.57;;;36.33;;
70825;SDS011;58446;41.490;22.098;2023-01-08T04:21:44;62.10;;;34.55;;
70825;SDS011;58446;41.490;22.098;2023-01-08T04:24:10;60.83;;;35.30;;
70825;SDS011;58446;41.490;22.098;2023-01-08T04:26:36;61.95;;;35.63;;
70825;SDS011;58446;41.490;22.098;2023-01-08T04:29:02;61.77;;;33.47;;
70825;SDS011;58446;41.490;22.098;2023-01-08T04:31:28;57.10;;;33.65;;
70825;SDS011;58446;41.490;22.098;2023-01-08T04:33:54;56.10;;;33.55;;
70825;SDS011;58446;41.490;22.098;2023-01-08T04:36:19;57.07;;;34.07;;
70825;SDS011;58446;41.490;22.098;2023-01-08T04:38:45;57.78;;;32.90;;
70825;SDS011;58446;41.490;22.098;2023-01-08T04:41:11;52.63;;;32.10;;
70825;SDS011;58446;41.490;22.098;2023-01-08T04:43:37;57.13;;;33.07;;
70825;SDS011;58446;41.490;22.098;2023-01-08T04:46:03;52.90;;;32.63;;
70825;SDS011;58446;41.490;22.098;2023-01-08T04:48:31;56.80;;;32.97;;
70825;SDS011;58446;41.490;22.098;2023-01-08T04:51:00;58.67;;;32.27;;
70825;SDS011;58446;41.490;22.098;2023-01-08T04:53:28;61.33;;;36.22;;
70825;SDS011;58446;41.490;22.098;2023-01-08T04:55:54;55.47;;;33.90;;
70825;SDS011;58446;41.490;22.098;2023-01-08T04:58:20;64.73;;;38.37;;
70825;SDS011;58446;41.490;22.098;2023-01-08T05:00:46;74.00;;;43.25;;
70825;SDS011;58446;41.490;22.098;2023-01-08T05:03:11;64.27;;;37.00;;
70825;SDS011;58446;41.490;22.098;2023-01-08T05:05:37;67.10;;;37.90;;
70825;SDS011;58446;41.490;22.098;2023-01-08T05:08:03;64.60;;;38.77;;
70825;SDS011;58446;41.490;22.098;2023-01-08T05:10:29;68.25;;;39.03;;
70825;SDS011;58446;41.490;22.098;2023-01-08T05:12:58;58.63;;;35.15;;
70825;SDS011;58446;41.490;22.098;2023-01-08T05:15:24;65.80;;;38.40;;
70825;SDS011;58446;41.490;22.098;2023-01-08T05:17:57;73.73;;;39.07;;
70825;SDS011;58446;41.490;22.098;2023-01-08T05:20:27;68.38;;;38.20;;
70825;SDS011;58446;41.490;22.098;2023-01-08T05:22:53;66.45;;;37.78;;
70825;SDS011;58446;41.490;22.098;2023-01-08T05:25:19;67.17;;;37.33;;
70825;SDS011;58446;41.490;22.098;2023-01-08T05:27:45;65.25;;;34.15;;
70825;SDS011;58446;41.490;22.098;2023-01-08T05:30:11;59.33;;;34.10;;
70825;SDS011;58446;41.490;22.098;2023-01-08T05:32:37;51.03;;;31.33;;
70825;SDS011;58446;41.490;22.098;2023-01-08T05:35:03;49.35;;;31.20;;
70825;SDS011;58446;41.490;22.098;2023-01-08T05:37:29;52.87;;;28.83;;
70825;SDS011;58446;41.490;22.098;2023-01-08T05:39:55;52.70;;;31.00;;
70825;SDS011;58446;41.490;22.098;2023-01-08T05:42:21;55.03;;;31.50;;
70825;SDS011;58446;41.490;22.098;2023-01-08T05:44:46;57.97;;;33.00;;
70825;SDS011;58446;41.490;22.098;2023-01-08T05:47:12;58.27;;;32.57;;
70825;SDS011;58446;41.490;22.098;2023-01-08T05:49:37;56.35;;;32.58;;
70825;SDS011;58446;41.490;22.098;2023-01-08T05:52:03;58.13;;;32.97;;
70825;SDS011;58446;41.490;22.098;2023-01-08T05:54:29;58.20;;;32.17;;
70825;SDS011;58446;41.490;22.098;2023-01-08T05:56:54;55.28;;;31.52;;
70825;SDS011;58446;41.490;22.098;2023-01-08T05:59:20;55.77;;;30.83;;
70825;SDS011;58446;41.490;22.098;2023-01-08T06:01:46;53.33;;;31.02;;
70825;SDS011;58446;41.490;22.098;2023-01-08T06:04:11;59.50;;;30.90;;
70825;SDS011;58446;41.490;22.098;2023-01-08T06:06:37;53.72;;;30.92;;
70825;SDS011;58446;41.490;22.098;2023-01-08T06:09:03;54.80;;;29.90;;
70825;SDS011;58446;41.490;22.098;2023-01-08T06:11:28;57.50;;;30.50;;
70825;SDS011;58446;41.490;22.098;2023-01-08T06:13:54;49.70;;;27.50;;
70825;SDS011;58446;41.490;22.098;2023-01-08T06:16:20;48.57;;;28.03;;
70825;SDS011;58446;41.490;22.098;2023-01-08T06:18:45;48.67;;;26.55;;
70825;SDS011;58446;41.490;22.098;2023-01-08T06:21:11;49.63;;;26.77;;
70825;SDS011;58446;41.490;22.098;2023-01-08T06:23:38;49.47;;;27.70;;
70825;SDS011;58446;41.490;22.098;2023-01-08T06:26:04;47.95;;;26.60;;
70825;SDS011;58446;41.490;22.098;2023-01-08T06:28:30;48.92;;;26.05;;
70825;SDS011;58446;41.490;22.098;2023-01-08T06:30:57;45.60;;;24.90;;
70825;SDS011;58446;41.490;22.098;2023-01-08T06:33:23;44.50;;;25.13;;
70825;SDS011;58446;41.490;22.098;2023-01-08T06:35:49;42.88;;;23.65;;
70825;SDS011;58446;41.490;22.098;2023-01-08T06:38:15;50.50;;;24.97;;
70825;SDS011;58446;41.490;22.098;2023-01-08T06:40:43;41.92;;;23.75;;
70825;SDS011;58446;41.490;22.098;2023-01-08T06:43:09;53.45;;;26.48;;
70825;SDS011;58446;41.490;22.098;2023-01-08T06:45:35;45.45;;;24.15;;
70825;SDS011;58446;41.490;22.098;2023-01-08T06:48:01;42.97;;;24.70;;
70825;SDS011;58446;41.490;22.098;2023-01-08T06:50:28;44.83;;;25.00;;
70825;SDS011;58446;41.490;22.098;2023-01-08T06:52:55;44.58;;;24.13;;
70825;SDS011;58446;41.490;22.098;2023-01-08T06:55:21;42.90;;;23.93;;
70825;SDS011;58446;41.490;22.098;2023-01-08T06:57:51;44.25;;;23.48;;
70825;SDS011;58446;41.490;22.098;2023-01-08T07:00:18;42.63;;;24.00;;
70825;SDS011;58446;41.490;22.098;2023-01-08T07:02:44;43.87;;;24.97;;
70825;SDS011;58446;41.490;22.098;2023-01-08T07:05:09;38.97;;;23.27;;
70825;SDS011;58446;41.490;22.098;2023-01-08T07:07:35;41.30;;;23.87;;
70825;SDS011;58446;41.490;22.098;2023-01-08T07:10:01;44.97;;;24.45;;
70825;SDS011;58446;41.490;22.098;2023-01-08T07:12:26;40.70;;;23.20;;
70825;SDS011;58446;41.490;22.098;2023-01-08T07:14:52;45.10;;;24.33;;
70825;SDS011;58446;41.490;22.098;2023-01-08T07:17:18;40.70;;;23.53;;
70825;SDS011;58446;41.490;22.098;2023-01-08T07:19:43;47.35;;;24.98;;
70825;SDS011;58446;41.490;22.098;2023-01-08T07:22:09;43.27;;;25.43;;
70825;SDS011;58446;41.490;22.098;2023-01-08T07:24:35;43.47;;;25.65;;
70825;SDS011;58446;41.490;22.098;2023-01-08T07:27:00;42.87;;;26.77;;
70825;SDS011;58446;41.490;22.098;2023-01-08T07:29:26;53.47;;;29.23;;
70825;SDS011;58446;41.490;22.098;2023-01-08T07:31:52;49.90;;;28.67;;
70825;SDS011;58446;41.490;22.098;2023-01-08T07:34:18;68.28;;;34.15;;
70825;SDS011;58446;41.490;22.098;2023-01-08T07:36:44;55.83;;;32.60;;
70825;SDS011;58446;41.490;22.098;2023-01-08T07:39:09;61.00;;;34.13;;
70825;SDS011;58446;41.490;22.098;2023-01-08T07:41:35;56.23;;;30.73;;
70825;SDS011;58446;41.490;22.098;2023-01-08T07:44:01;61.35;;;31.95;;
70825;SDS011;58446;41.490;22.098;2023-01-08T07:46:26;54.43;;;29.80;;
70825;SDS011;58446;41.490;22.098;2023-01-08T07:48:52;51.42;;;28.70;;
70825;SDS011;58446;41.490;22.098;2023-01-08T07:51:18;50.43;;;29.37;;
70825;SDS011;58446;41.490;22.098;2023-01-08T07:53:43;46.60;;;26.55;;
70825;SDS011;58446;41.490;22.098;2023-01-08T07:56:09;49.10;;;27.17;;
70825;SDS011;58446;41.490;22.098;2023-01-08T07:58:35;46.72;;;25.00;;
70825;SDS011;58446;41.490;22.098;2023-01-08T08:01:06;40.53;;;24.05;;
70825;SDS011;58446;41.490;22.098;2023-01-08T08:03:33;46.38;;;25.33;;
70825;SDS011;58446;41.490;22.098;2023-01-08T08:05:59;44.03;;;25.47;;
70825;SDS011;58446;41.490;22.098;2023-01-08T08:08:27;42.22;;;23.40;;
70825;SDS011;58446;41.490;22.098;2023-01-08T08:10:53;41.13;;;24.90;;
70825;SDS011;58446;41.490;22.098;2023-01-08T08:13:19;42.27;;;23.83;;
70825;SDS011;58446;41.490;22.098;2023-01-08T08:15:44;41.30;;;23.98;;
70825;SDS011;58446;41.490;22.098;2023-01-08T08:18:10;41.77;;;24.90;;
70825;SDS011;58446;41.490;22.098;2023-01-08T08:20:36;36.13;;;21.25;;
70825;SDS011;58446;41.490;22.098;2023-01-08T08:23:09;36.47;;;22.57;;
70825;SDS011;58446;41.490;22.098;2023-01-08T08:25:40;41.47;;;23.60;;
70825;SDS011;58446;41.490;22.098;2023-01-08T08:28:07;39.15;;;21.50;;
70825;SDS011;58446;41.490;22.098;2023-01-08T08:30:35;38.80;;;21.92;;
70825;SDS011;58446;41.490;22.098;2023-01-08T08:33:02;46.55;;;26.17;;
70825;SDS011;58446;41.490;22.098;2023-01-08T08:35:29;38.30;;;22.50;;
70825;SDS011;58446;41.490;22.098;2023-01-08T08:37:56;39.05;;;22.50;;
70825;SDS011;58446;41.490;22.098;2023-01-08T08:40:22;38.35;;;22.98;;
70825;SDS011;58446;41.490;22.098;2023-01-08T08:42:53;39.72;;;23.25;;
70825;SDS011;58446;41.490;22.098;2023-01-08T08:45:23;33.38;;;21.73;;
70825;SDS011;58446;41.490;22.098;2023-01-08T08:47:49;31.83;;;19.60;;
70825;SDS011;58446;41.490;22.098;2023-01-08T08:50:15;35.88;;;20.80;;
70825;SDS011;58446;41.490;22.098;2023-01-08T08:52:41;34.87;;;20.43;;
70825;SDS011;58446;41.490;22.098;2023-01-08T08:55:09;31.55;;;20.73;;
70825;SDS011;58446;41.490;22.098;2023-01-08T08:57:39;37.70;;;21.65;;
70825;SDS011;58446;41.490;22.098;2023-01-08T09:00:05;31.93;;;19.63;;
70825;SDS011;58446;41.490;22.098;2023-01-08T09:02:31;34.17;;;20.55;;
70825;SDS011;58446;41.490;22.098;2023-01-08T09:04:56;34.00;;;21.15;;
70825;SDS011;58446;41.490;22.098;2023-01-08T09:07:22;32.87;;;20.63;;
70825;SDS011;58446;41.490;22.098;2023-01-08T09:09:48;31.03;;;20.43;;
70825;SDS011;58446;41.490;22.098;2023-01-08T09:12:14;32.27;;;20.43;;
70825;SDS011;58446;41.490;22.098;2023-01-08T09:14:39;28.02;;;20.60;;
70825;SDS011;58446;41.490;22.098;2023-01-08T09:17:05;29.50;;;20.00;;
70825;SDS011;58446;41.490;22.098;2023-01-08T09:19:31;30.52;;;19.98;;
70825;SDS011;58446;41.490;22.098;2023-01-08T09:21:58;29.90;;;19.35;;
70825;SDS011;58446;41.490;22.098;2023-01-08T09:24:23;27.87;;;19.60;;
70825;SDS011;58446;41.490;22.098;2023-01-08T09:26:51;27.95;;;18.38;;
70825;SDS011;58446;41.490;22.098;2023-01-08T09:29:18;24.27;;;16.27;;
70825;SDS011;58446;41.490;22.098;2023-01-08T09:31:43;27.37;;;18.43;;
70825;SDS011;58446;41.490;22.098;2023-01-08T09:34:09;28.67;;;19.00;;
70825;SDS011;58446;41.490;22.098;2023-01-08T09:36:38;27.97;;;18.60;;
70825;SDS011;58446;41.490;22.098;2023-01-08T09:39:04;27.95;;;17.55;;
70825;SDS011;58446;41.490;22.098;2023-01-08T09:41:33;31.25;;;19.25;;
70825;SDS011;58446;41.490;22.098;2023-01-08T09:44:03;31.33;;;19.57;;
70825;SDS011;58446;41.490;22.098;2023-01-08T09:46:30;30.35;;;20.10;;
70825;SDS011;58446;41.490;22.098;2023-01-08T09:48:57;29.38;;;20.20;;
70825;SDS011;58446;41.490;22.098;2023-01-08T09:51:32;28.98;;;19.00;;
70825;SDS011;58446;41.490;22.098;2023-01-08T09:53:59;28.30;;;18.40;;
70825;SDS011;58446;41.490;22.098;2023-01-08T09:56:25;30.98;;;20.30;;
70825;SDS011;58446;41.490;22.098;2023-01-08T09:58:52;31.55;;;20.67;;
70825;SDS011;58446;41.490;22.098;2023-01-08T10:01:21;29.73;;;19.10;;
70825;SDS011;58446;41.490;22.098;2023-01-08T10:03:56;27.90;;;18.60;;
70825;SDS011;58446;41.490;22.098;2023-01-08T10:06:28;28.17;;;19.10;;
70825;SDS011;58446;41.490;22.098;2023-01-08T10:08:55;29.38;;;18.88;;
70825;SDS011;58446;41.490;22.098;2023-01-08T10:11:22;28.58;;;20.05;;
70825;SDS011;58446;41.490;22.098;2023-01-08T10:13:53;31.27;;;21.65;;
70825;SDS011;58446;41.490;22.098;2023-01-08T10:16:25;44.90;;;36.60;;
70825;SDS011;58446;41.490;22.098;2023-01-08T10:18:54;63.65;;;55.80;;
70825;SDS011;58446;41.490;22.098;2023-01-08T10:21:21;66.78;;;55.25;;
70825;SDS011;58446;41.490;22.098;2023-01-08T10:23:54;41.00;;;26.85;;
70825;SDS011;58446;41.490;22.098;2023-01-08T10:26:28;43.25;;;26.67;;
70825;SDS011;58446;41.490;22.098;2023-01-08T10:29:05;49.73;;;33.27;;
70825;SDS011;58446;41.490;22.098;2023-01-08T10:31:32;77.50;;;59.10;;
70825;SDS011;58446;41.490;22.098;2023-01-08T10:34:09;50.70;;;35.08;;
70825;SDS011;58446;41.490;22.098;2023-01-08T10:36:38;64.28;;;44.90;;
70825;SDS011;58446;41.490;22.098;2023-01-08T10:39:05;167.60;;;103.00;;
70825;SDS011;58446;41.490;22.098;2023-01-08T10:41:35;201.93;;;134.43;;
70825;SDS011;58446;41.490;22.098;2023-01-08T10:44:04;337.60;;;229.50;;
70825;SDS011;58446;41.490;22.098;2023-01-08T10:46:41;210.75;;;132.10;;
70825;SDS011;58446;41.490;22.098;2023-01-08T10:49:42;85.43;;;52.83;;
70825;SDS011;58446;41.490;22.098;2023-01-08T10:52:18;56.90;;;35.20;;
70825;SDS011;58446;41.490;22.098;2023-01-08T10:54:51;70.72;;;42.40;;
70825;SDS011;58446;41.490;22.098;2023-01-08T10:57:21;56.03;;;36.53;;
70825;SDS011;58446;41.490;22.098;2023-01-08T10:59:51;82.53;;;52.30;;
70825;SDS011;58446;41.490;22.098;2023-01-08T11:02:29;91.75;;;60.15;;
70825;SDS011;58446;41.490;22.098;2023-01-08T11:05:00;124.27;;;89.43;;
70825;SDS011;58446;41.490;22.098;2023-01-08T11:07:29;114.93;;;76.70;;
70825;SDS011;58446;41.490;22.098;2023-01-08T11:09:59;131.63;;;78.53;;
70825;SDS011;58446;41.490;22.098;2023-01-08T11:12:31;77.40;;;55.28;;
70825;SDS011;58446;41.490;22.098;2023-01-08T11:15:00;64.43;;;44.53;;
70825;SDS011;58446;41.490;22.098;2023-01-08T11:17:26;48.80;;;35.00;;
70825;SDS011;58446;41.490;22.098;2023-01-08T11:19:52;54.90;;;40.50;;
70825;SDS011;58446;41.490;22.098;2023-01-08T11:22:19;49.00;;;36.78;;
70825;SDS011;58446;41.490;22.098;2023-01-08T11:24:46;67.25;;;57.30;;
70825;SDS011;58446;41.490;22.098;2023-01-08T11:27:15;40.35;;;27.50;;
70825;SDS011;58446;41.490;22.098;2023-01-08T11:29:49;34.37;;;23.50;;
70825;SDS011;58446;41.490;22.098;2023-01-08T11:32:29;30.02;;;19.02;;
70825;SDS011;58446;41.490;22.098;2023-01-08T11:35:26;30.10;;;21.25;;
70825;SDS011;58446;41.490;22.098;2023-01-08T11:37:55;35.67;;;24.45;;
70825;SDS011;58446;41.490;22.098;2023-01-08T11:43:50;134.33;;;104.20;;
70825;SDS011;58446;41.490;22.098;2023-01-08T12:02:55;43.90;;;27.85;;
70825;SDS011;58446;41.490;22.098;2023-01-08T12:13:38;35.58;;;24.98;;
70825;SDS011;58446;41.490;22.098;2023-01-08T12:21:48;35.58;;;24.00;;
70825;SDS011;58446;41.490;22.098;2023-01-08T12:30:34;56.20;;;30.48;;
70825;SDS011;58446;41.490;22.098;2023-01-08T12:35:57;28.60;;;18.42;;
70825;SDS011;58446;41.490;22.098;2023-01-08T12:38:38;39.63;;;23.60;;
70825;SDS011;58446;41.490;22.098;2023-01-08T12:41:11;38.47;;;23.00;;
70825;SDS011;58446;41.490;22.098;2023-01-08T12:43:44;64.93;;;32.75;;
70825;SDS011;58446;41.490;22.098;2023-01-08T12:46:15;21.77;;;13.80;;
70825;SDS011;58446;41.490;22.098;2023-01-08T12:48:42;20.63;;;14.25;;
70825;SDS011;58446;41.490;22.098;2023-01-08T12:51:12;45.43;;;24.50;;
70825;SDS011;58446;41.490;22.098;2023-01-08T12:56:54;39.60;;;23.17;;
70825;SDS011;58446;41.490;22.098;2023-01-08T12:59:31;34.72;;;21.88;;
70825;SDS011;58446;41.490;22.098;2023-01-08T13:05:28;20.90;;;13.13;;
70825;SDS011;58446;41.490;22.098;2023-01-08T13:08:07;22.67;;;16.00;;
70825;SDS011;58446;41.490;22.098;2023-01-08T13:10:48;20.98;;;13.88;;
70825;SDS011;58446;41.490;22.098;2023-01-08T13:13:31;21.52;;;14.07;;
70825;SDS011;58446;41.490;22.098;2023-01-08T13:18:52;22.77;;;13.27;;
70825;SDS011;58446;41.490;22.098;2023-01-08T13:21:33;20.17;;;13.98;;
70825;SDS011;58446;41.490;22.098;2023-01-08T13:27:08;20.45;;;13.00;;
70825;SDS011;58446;41.490;22.098;2023-01-08T13:29:47;22.92;;;15.02;;
70825;SDS011;58446;41.490;22.098;2023-01-08T13:43:11;20.95;;;13.95;;
70825;SDS011;58446;41.490;22.098;2023-01-08T13:45:40;19.67;;;13.07;;
70825;SDS011;58446;41.490;22.098;2023-01-08T13:48:20;25.75;;;17.45;;
70825;SDS011;58446;41.490;22.098;2023-01-08T13:50:50;20.92;;;14.82;;
70825;SDS011;58446;41.490;22.098;2023-01-08T13:53:16;18.23;;;12.98;;
70825;SDS011;58446;41.490;22.098;2023-01-08T13:56:03;20.00;;;13.35;;
70825;SDS011;58446;41.490;22.098;2023-01-08T13:58:33;23.80;;;15.60;;
70825;SDS011;58446;41.490;22.098;2023-01-08T14:01:02;21.88;;;14.52;;
70825;SDS011;58446;41.490;22.098;2023-01-08T14:03:30;17.75;;;12.32;;
70825;SDS011;58446;41.490;22.098;2023-01-08T14:06:12;19.80;;;13.57;;
70825;SDS011;58446;41.490;22.098;2023-01-08T14:08:52;22.38;;;15.70;;
70825;SDS011;58446;41.490;22.098;2023-01-08T14:11:34;22.40;;;14.70;;
70825;SDS011;58446;41.490;22.098;2023-01-08T14:14:11;18.33;;;13.43;;
70825;SDS011;58446;41.490;22.098;2023-01-08T14:16:38;21.10;;;15.27;;
70825;SDS011;58446;41.490;22.098;2023-01-08T14:19:04;19.45;;;13.82;;
70825;SDS011;58446;41.490;22.098;2023-01-08T14:21:30;20.30;;;14.90;;
70825;SDS011;58446;41.490;22.098;2023-01-08T14:23:56;21.53;;;14.53;;
70825;SDS011;58446;41.490;22.098;2023-01-08T14:26:26;19.65;;;14.43;;
70825;SDS011;58446;41.490;22.098;2023-01-08T14:29:00;20.38;;;14.00;;
70825;SDS011;58446;41.490;22.098;2023-01-08T14:31:36;20.08;;;13.85;;
70825;SDS011;58446;41.490;22.098;2023-01-08T14:34:01;22.23;;;15.20;;
70825;SDS011;58446;41.490;22.098;2023-01-08T14:36:28;25.52;;;17.35;;
70825;SDS011;58446;41.490;22.098;2023-01-08T14:38:54;25.67;;;18.40;;
70825;SDS011;58446;41.490;22.098;2023-01-08T14:44:24;22.40;;;15.80;;
70825;SDS011;58446;41.490;22.098;2023-01-08T14:46:51;38.77;;;27.10;;
70825;SDS011;58446;41.490;22.098;2023-01-08T14:49:25;24.33;;;18.48;;
70825;SDS011;58446;41.490;22.098;2023-01-08T14:51:53;26.35;;;18.40;;
70825;SDS011;58446;41.490;22.098;2023-01-08T14:54:22;42.13;;;22.70;;
70825;SDS011;58446;41.490;22.098;2023-01-08T14:56:55;47.67;;;27.10;;
70825;SDS011;58446;41.490;22.098;2023-01-08T14:59:24;67.10;;;39.77;;
70825;SDS011;58446;41.490;22.098;2023-01-08T15:01:55;66.32;;;39.28;;
70825;SDS011;58446;41.490;22.098;2023-01-08T15:04:23;59.03;;;38.78;;
70825;SDS011;58446;41.490;22.098;2023-01-08T15:06:50;62.00;;;38.95;;
70825;SDS011;58446;41.490;22.098;2023-01-08T15:09:26;60.90;;;40.78;;
70825;SDS011;58446;41.490;22.098;2023-01-08T15:11:55;65.93;;;42.07;;
70825;SDS011;58446;41.490;22.098;2023-01-08T15:14:25;77.85;;;45.85;;
70825;SDS011;58446;41.490;22.098;2023-01-08T15:16:53;59.20;;;35.53;;
70825;SDS011;58446;41.490;22.098;2023-01-08T15:19:22;69.00;;;43.65;;
70825;SDS011;58446;41.490;22.098;2023-01-08T15:21:56;56.63;;;35.88;;
70825;SDS011;58446;41.490;22.098;2023-01-08T15:24:24;122.63;;;68.63;;
70825;SDS011;58446;41.490;22.098;2023-01-08T15:26:56;267.02;;;141.40;;
70825;SDS011;58446;41.490;22.098;2023-01-08T15:29:27;314.23;;;158.80;;
70825;SDS011;58446;41.490;22.098;2023-01-08T15:34:38;269.98;;;139.15;;
70825;SDS011;58446;41.490;22.098;2023-01-08T15:37:04;266.50;;;134.40;;
70825;SDS011;58446;41.490;22.098;2023-01-08T15:39:29;323.27;;;161.50;;
70825;SDS011;58446;41.490;22.098;2023-01-08T15:41:55;235.73;;;120.60;;
70825;SDS011;58446;41.490;22.098;2023-01-08T15:44:43;355.40;;;175.43;;
70825;SDS011;58446;41.490;22.098;2023-01-08T15:47:08;412.47;;;219.47;;